Time;durP1;ratioP1;P1;durP2;ratioP2;P2;SDS_P1;SDS_P2;PMS_P1;PMS_P2;Temp;Humidity;BMP_temperature;BMP_pressure;BME280_temperature;BME280_humidity;BME280_pressure;Samples;Min_cycle;Max_cycle;Signal;HPM_P1;HPM_P2
2022/03/22 00:01:53;;;;;;;53.33;40.40;;;;;;;10.55;62.59;102893.03;5070940;28;20023;-68
2022/03/22 00:04:19;;;;;;;51.20;37.67;;;;;;;10.54;62.54;102896.63;5072542;28;20028;-68
2022/03/22 00:06:45;;;;;;;55.22;40.83;;;;;;;10.55;62.68;102896.56;5087164;28;20421;-67
2022/03/22 00:09:10;;;;;;;51.88;39.42;;;;;;;10.50;62.41;102897.63;5070901;28;20024;-67
2022/03/22 00:11:36;;;;;;;52.80;40.05;;;;;;;10.47;62.75;102903.94;5075863;28;20039;-67
2022/03/22 00:14:02;;;;;;;51.67;38.03;;;;;;;10.36;62.99;102895.41;5083653;28;20032;-67
2022/03/22 00:16:29;;;;;;;50.33;36.55;;;;;;;10.25;63.01;102908.97;5079554;28;20024;-68
2022/03/22 00:18:55;;;;;;;50.70;37.35;;;;;;;10.35;62.31;102897.19;5086466;28;20028;-67
2022/03/22 00:21:21;;;;;;;53.00;37.20;;;;;;;10.29;63.07;102902.66;5093953;28;20059;-67
2022/03/22 00:23:47;;;;;;;48.00;37.83;;;;;;;10.27;63.12;102887.69;5063937;28;20032;-67
2022/03/22 00:26:13;;;;;;;45.88;35.33;;;;;;;10.34;63.00;102889.22;5100083;28;21745;-67
2022/03/22 00:28:38;;;;;;;49.22;36.95;;;;;;;10.35;62.72;102890.97;5096520;28;20438;-67
2022/03/22 00:31:04;;;;;;;49.85;37.95;;;;;;;10.22;63.07;102893.09;5087424;28;20034;-67
2022/03/22 00:33:30;;;;;;;50.10;36.22;;;;;;;10.43;62.15;102896.94;5081361;28;20032;-68
2022/03/22 00:35:56;;;;;;;50.65;37.97;;;;;;;10.24;63.08;102902.78;5091372;28;20024;-67
2022/03/22 00:38:21;;;;;;;53.08;37.97;;;;;;;10.23;63.37;102918.75;5074616;28;20038;-68
2022/03/22 00:40:47;;;;;;;48.08;38.53;;;;;;;10.19;63.79;102912.66;5095613;28;20031;-67
2022/03/22 00:43:13;;;;;;;54.80;37.05;;;;;;;10.14;63.95;102919.03;5089624;28;20028;-67
2022/03/22 00:45:39;;;;;;;49.33;37.20;;;;;;;10.09;63.74;102919.16;5097956;28;20030;-67
2022/03/22 00:48:07;;;;;;;49.80;38.08;;;;;;;9.97;64.15;102917.72;5108566;28;20020;-68
2022/03/22 00:50:36;;;;;;;47.20;36.45;;;;;;;10.01;63.85;102914.03;5102850;28;20031;-68
2022/03/22 00:53:04;;;;;;;46.95;36.63;;;;;;;9.89;64.13;102898.44;5106817;28;20083;-68
2022/03/22 00:55:33;;;;;;;49.22;36.63;;;;;;;9.92;64.17;102910.78;5100979;28;20053;-67
2022/03/22 00:57:58;;;;;;;47.25;34.90;;;;;;;9.97;64.17;102914.16;5083122;28;20035;-67
2022/03/22 01:00:26;;;;;;;47.08;36.47;;;;;;;9.69;64.55;102893.66;5055738;28;20398;-67
2022/03/22 01:02:54;;;;;;;49.70;36.03;;;;;;;9.80;64.39;102921.75;5109411;28;20032;-67
2022/03/22 01:05:23;;;;;;;48.28;35.83;;;;;;;9.72;64.76;102914.81;5098978;28;20046;-67
2022/03/22 01:07:52;;;;;;;48.28;36.45;;;;;;;9.67;64.39;102899.91;5111199;28;20493;-67
2022/03/22 01:10:20;;;;;;;46.83;36.13;;;;;;;9.63;64.46;102916.84;5106340;28;20389;-67
2022/03/22 01:12:47;;;;;;;50.47;36.83;;;;;;;9.65;65.01;102909.72;5095660;28;20053;-67
2022/03/22 01:15:19;;;;;;;48.25;35.55;;;;;;;9.61;64.90;102911.56;5077980;28;20034;-67
2022/03/22 01:17:48;;;;;;;46.20;34.03;;;;;;;9.46;65.09;102911.97;5108830;28;20470;-67
2022/03/22 01:20:14;;;;;;;53.78;35.70;;;;;;;9.55;64.87;102914.38;5089623;28;20487;-67
2022/03/22 01:22:45;;;;;;;46.05;34.65;;;;;;;9.58;64.70;102929.38;5085462;28;20059;-67
2022/03/22 01:25:14;;;;;;;47.17;35.17;;;;;;;9.39;65.11;102908.59;5078423;28;20024;-67
2022/03/22 01:27:42;;;;;;;45.03;32.10;;;;;;;9.52;64.71;102915.34;5087108;28;20027;-68
2022/03/22 01:30:09;;;;;;;48.75;33.00;;;;;;;9.42;65.28;102919.16;5079468;28;20031;-67
2022/03/22 01:32:36;;;;;;;51.85;34.63;;;;;;;9.29;65.17;102918.59;5073163;28;20073;-68
2022/03/22 01:35:03;;;;;;;46.30;33.63;;;;;;;9.32;65.57;102921.16;5077705;28;20023;-67
2022/03/22 01:37:29;;;;;;;41.40;31.48;;;;;;;9.29;65.24;102918.59;5076530;28;20099;-67
2022/03/22 01:39:55;;;;;;;41.20;32.40;;;;;;;9.21;66.50;102920.53;5076372;28;20055;-67
2022/03/22 01:42:21;;;;;;;44.90;33.05;;;;;;;9.22;66.20;102918.75;5089640;28;20082;-67
2022/03/22 01:44:47;;;;;;;46.22;33.13;;;;;;;9.20;66.15;102916.13;5079866;28;20028;-67
2022/03/22 01:47:16;;;;;;;40.60;32.03;;;;;;;9.20;66.25;102912.59;5085909;28;20088;-67
2022/03/22 01:49:42;;;;;;;42.53;30.52;;;;;;;9.20;65.98;102924.09;5080454;28;20061;-67
2022/03/22 01:52:14;;;;;;;38.53;30.33;;;;;;;9.14;66.71;102918.06;5077769;28;20029;-67
2022/03/22 01:54:41;;;;;;;38.72;31.38;;;;;;;9.25;66.16;102919.53;5072761;28;20483;-67
2022/03/22 01:57:08;;;;;;;41.25;28.70;;;;;;;9.40;66.13;102915.66;5082780;28;20101;-67
2022/03/22 01:59:34;;;;;;;36.90;28.00;;;;;;;9.39;65.91;102916.56;5076865;28;20028;-67
2022/03/22 02:07:39;;;;;;;37.90;26.52;;;;;;;9.44;65.32;102911.13;5074526;28;19934;-67
2022/03/22 02:10:05;;;;;;;39.00;27.77;;;;;;;9.37;66.00;102909.53;5086771;28;20078;-67
2022/03/22 02:12:31;;;;;;;41.30;27.85;;;;;;;9.32;65.93;102891.94;5092530;28;20066;-67
2022/03/22 02:14:56;;;;;;;33.40;26.65;;;;;;;9.33;66.07;102906.97;5086314;28;20056;-67
2022/03/22 02:17:22;;;;;;;35.45;26.52;;;;;;;9.50;65.64;102903.00;5085950;28;20047;-67
2022/03/22 02:19:47;;;;;;;33.03;24.75;;;;;;;9.36;65.73;102889.22;5060208;28;20056;-67
2022/03/22 02:22:17;;;;;;;35.63;26.75;;;;;;;9.26;66.06;102900.03;5087051;28;20403;-67
2022/03/22 02:24:42;;;;;;;39.10;26.23;;;;;;;9.35;65.95;102898.94;5082518;28;20521;-67
2022/03/22 02:27:09;;;;;;;35.72;25.48;;;;;;;9.42;65.76;102897.03;5086537;28;20052;-67
2022/03/22 02:29:35;;;;;;;32.95;26.08;;;;;;;9.32;65.97;102899.91;5083830;28;20031;-67
2022/03/22 02:32:07;;;;;;;36.95;26.35;;;;;;;9.23;66.49;102896.59;5083299;28;20031;-67
2022/03/22 02:34:36;;;;;;;34.85;25.85;;;;;;;9.10;66.33;102893.38;5081843;28;20020;-67
2022/03/22 02:37:04;;;;;;;34.78;23.90;;;;;;;9.17;66.16;102897.63;5071834;28;20020;-68
2022/03/22 02:39:31;;;;;;;35.58;25.27;;;;;;;9.03;67.10;102900.63;5077755;28;20041;-67
2022/03/22 02:41:57;;;;;;;33.63;25.55;;;;;;;9.16;66.62;102901.19;5072420;28;20032;-67
2022/03/22 02:44:23;;;;;;;33.13;25.45;;;;;;;9.16;66.00;102895.00;5073809;28;20097;-67
2022/03/22 02:46:52;;;;;;;32.38;24.67;;;;;;;9.05;66.29;102890.81;5077177;28;20415;-67
2022/03/22 02:49:17;;;;;;;35.03;24.70;;;;;;;9.06;66.19;102897.03;5087832;28;20028;-67
2022/03/22 02:51:46;;;;;;;33.13;24.33;;;;;;;9.13;66.10;102906.56;5068055;28;20340;-67
2022/03/22 02:54:13;;;;;;;37.08;25.40;;;;;;;9.06;66.00;102899.69;5075921;28;20048;-67
2022/03/22 02:56:39;;;;;;;31.33;24.75;;;;;;;9.05;66.04;102900.56;5086937;28;20479;-67
2022/03/22 02:59:04;;;;;;;31.67;24.30;;;;;;;9.01;66.29;102898.91;5084181;28;20061;-67
2022/03/22 03:01:32;;;;;;;32.08;24.10;;;;;;;9.02;66.15;102906.81;5082969;28;20061;-67
2022/03/22 03:03:59;;;;;;;34.28;25.38;;;;;;;8.86;66.76;102908.09;5076207;28;20027;-67
2022/03/22 03:06:28;;;;;;;33.47;24.08;;;;;;;8.76;66.62;102906.53;5071346;28;20035;-67
2022/03/22 03:08:55;;;;;;;29.33;23.80;;;;;;;8.86;66.19;102903.66;5073532;28;20468;-67
2022/03/22 03:11:21;;;;;;;35.28;24.98;;;;;;;8.67;66.71;102904.09;5076289;28;20024;-67
2022/03/22 03:16:31;;;;;;;33.65;24.48;;;;;;;8.69;66.88;102905.81;5071524;28;20044;-67
2022/03/22 03:18:57;;;;;;;32.92;25.25;;;;;;;8.59;67.23;102906.94;5055105;28;20021;-67
2022/03/22 03:21:25;;;;;;;34.72;25.10;;;;;;;8.72;66.76;102908.41;5072179;28;20055;-67
2022/03/22 03:23:51;;;;;;;36.17;24.65;;;;;;;8.61;66.77;102902.44;5073765;28;20032;-67
2022/03/22 03:26:18;;;;;;;34.08;25.08;;;;;;;8.63;67.15;102905.94;5075855;28;20026;-67
2022/03/22 03:28:44;;;;;;;31.27;24.90;;;;;;;8.70;66.79;102904.91;5089805;28;20471;-67
2022/03/22 03:31:09;;;;;;;31.67;24.63;;;;;;;8.63;66.72;102911.25;5062365;28;20028;-67
2022/03/22 03:33:35;;;;;;;32.63;25.58;;;;;;;8.55;66.80;102910.53;5072692;28;20089;-67
2022/03/22 03:36:03;;;;;;;34.45;24.95;;;;;;;8.58;66.73;102913.13;5085163;28;20107;-68
2022/03/22 03:38:29;;;;;;;32.92;25.45;;;;;;;8.50;67.02;102913.31;5062073;28;20501;-67
2022/03/22 03:43:41;;;;;;;32.70;25.20;;;;;;;8.41;66.67;102918.78;5076208;28;20516;-67
2022/03/22 03:48:51;;;;;;;32.85;25.10;;;;;;;8.41;67.14;102932.94;5073202;28;20077;-67
2022/03/22 03:51:19;;;;;;;31.95;24.80;;;;;;;8.39;66.77;102925.91;5068569;28;20115;-67
2022/03/22 03:53:45;;;;;;;34.53;25.95;;;;;;;8.26;67.56;102929.66;5088799;28;20047;-67
2022/03/22 03:56:11;;;;;;;32.33;25.00;;;;;;;8.22;67.62;102927.97;5065308;28;20490;-67
2022/03/22 03:58:36;;;;;;;31.10;24.90;;;;;;;8.29;67.25;102927.81;5050801;28;20044;-67
2022/03/22 04:01:02;;;;;;;32.85;25.52;;;;;;;8.12;67.77;102936.13;5054188;28;20028;-67
2022/03/22 04:03:28;;;;;;;30.70;25.67;;;;;;;8.13;67.45;102932.56;5090733;28;20028;-67
2022/03/22 04:05:56;;;;;;;36.85;26.45;;;;;;;8.10;67.65;102932.63;5076055;28;20082;-67
2022/03/22 04:08:21;;;;;;;31.83;24.05;;;;;;;8.10;67.66;102940.56;5088324;28;20031;-67
2022/03/22 04:10:47;;;;;;;32.35;24.30;;;;;;;8.03;67.56;102944.25;5072638;28;20031;-67
2022/03/22 04:13:13;;;;;;;31.75;24.40;;;;;;;8.03;67.42;102943.34;5087521;28;20020;-67
2022/03/22 04:15:42;;;;;;;33.13;24.70;;;;;;;8.03;68.01;102943.34;5081227;28;20390;-67
2022/03/22 04:18:08;;;;;;;33.30;25.40;;;;;;;7.96;67.94;102938.16;5079180;28;20154;-67
2022/03/22 04:20:33;;;;;;;33.42;24.08;;;;;;;8.06;67.75;102936.25;5090659;28;20134;-67
2022/03/22 04:22:59;;;;;;;32.10;25.33;;;;;;;7.99;67.65;102939.88;5082186;28;20032;-67
2022/03/22 04:25:25;;;;;;;34.65;24.88;;;;;;;7.90;68.07;102946.22;5082521;28;20028;-67
2022/03/22 04:33:18;;;;;;;32.45;24.35;;;;;;;7.79;67.86;102939.38;5105847;28;20140;-67
2022/03/22 04:35:45;;;;;;;36.95;25.67;;;;;;;7.87;67.99;102943.63;5080063;28;20086;-67
2022/03/22 04:38:10;;;;;;;33.97;24.65;;;;;;;7.72;68.09;102938.63;5079300;28;20028;-67
2022/03/22 04:40:35;;;;;;;35.58;24.73;;;;;;;7.66;68.53;102941.38;5114702;28;20540;-67
2022/03/22 04:43:04;;;;;;;33.00;24.52;;;;;;;7.72;68.47;102939.47;5096502;28;20027;-67
2022/03/22 04:45:30;;;;;;;32.70;24.98;;;;;;;7.56;69.02;102945.06;5081726;28;20035;-67
2022/03/22 04:47:55;;;;;;;35.60;24.50;;;;;;;7.65;68.74;102944.94;5101996;28;20042;-67
2022/03/22 04:50:21;;;;;;;35.03;24.88;;;;;;;7.56;69.02;102947.72;5096468;28;20027;-67
2022/03/22 04:58:15;;;;;;;38.30;26.30;;;;;;;7.53;69.21;102956.59;5082927;28;20600;-67
2022/03/22 05:00:41;;;;;;;30.27;25.48;;;;;;;7.40;69.13;102958.56;5085586;28;20135;-67
2022/03/22 05:03:09;;;;;;;34.67;25.27;;;;;;;7.46;68.96;102955.81;5106897;28;20038;-67
2022/03/22 05:08:21;;;;;;;37.00;26.15;;;;;;;7.36;69.70;102954.22;5116909;28;20084;-67
2022/03/22 05:10:48;;;;;;;34.53;25.25;;;;;;;7.38;69.28;102956.81;5097477;28;20027;-67
2022/03/22 05:13:17;;;;;;;31.85;24.23;;;;;;;7.35;69.65;102962.16;5099229;28;20031;-67
2022/03/22 05:15:43;;;;;;;32.05;24.17;;;;;;;7.35;69.55;102960.38;5110467;28;20031;-67
2022/03/22 05:18:09;;;;;;;32.85;25.50;;;;;;;7.32;69.72;102963.09;5088863;28;20035;-67
2022/03/22 05:20:36;;;;;;;35.00;25.48;;;;;;;7.23;69.99;102971.16;5103389;28;20505;-67
2022/03/22 05:23:03;;;;;;;32.88;25.60;;;;;;;7.18;69.73;102973.91;5088331;28;20036;-67
2022/03/22 05:25:31;;;;;;;38.30;25.98;;;;;;;7.12;70.46;102962.50;5084965;28;20054;-67
2022/03/22 05:28:02;;;;;;;41.25;25.33;;;;;;;7.14;69.73;102971.31;5106816;28;20024;-67
2022/03/22 05:30:28;;;;;;;34.85;25.55;;;;;;;7.15;70.43;102973.94;5106202;28;20028;-67
2022/03/22 05:32:56;;;;;;;36.70;25.95;;;;;;;7.13;70.16;102974.84;5082244;28;20092;-67
2022/03/22 05:35:25;;;;;;;34.60;25.83;;;;;;;7.15;70.77;102979.25;5095458;28;20028;-67
2022/03/22 05:37:51;;;;;;;35.80;25.20;;;;;;;7.12;70.02;102971.34;5093574;28;20047;-67
2022/03/22 05:40:18;;;;;;;33.22;24.73;;;;;;;7.13;70.29;102980.16;5094393;28;20027;-67
2022/03/22 05:42:47;;;;;;;33.13;24.58;;;;;;;7.10;70.03;102990.78;5073890;28;20050;-67
2022/03/22 05:45:12;;;;;;;33.70;25.27;;;;;;;7.10;69.80;102989.00;5089064;28;20557;-67
2022/03/22 05:47:39;;;;;;;38.75;24.23;;;;;;;7.16;70.26;102988.03;5089133;28;20126;-67
2022/03/22 05:50:05;;;;;;;36.28;25.08;;;;;;;7.08;69.91;102984.63;5096682;28;20070;-67
2022/03/22 05:52:31;;;;;;;30.20;24.15;;;;;;;7.08;70.26;102984.63;5092007;28;20043;-67
2022/03/22 05:54:57;;;;;;;35.70;25.98;;;;;;;7.04;70.68;102976.72;5084330;28;20031;-67
2022/03/22 05:57:23;;;;;;;36.75;25.75;;;;;;;7.04;70.77;102986.44;5068655;28;20036;-67
2022/03/22 05:59:48;;;;;;;35.67;25.75;;;;;;;7.08;70.67;102979.34;5062491;28;20055;-67
2022/03/22 06:02:14;;;;;;;36.20;25.20;;;;;;;7.16;70.12;102982.75;5074779;28;20055;-67
2022/03/22 06:04:41;;;;;;;38.25;25.83;;;;;;;7.11;70.85;102984.59;5098217;28;20092;-67
2022/03/22 06:07:08;;;;;;;35.42;25.20;;;;;;;7.12;69.85;102965.16;5112679;28;20118;-67
2022/03/22 06:09:33;;;;;;;36.22;26.60;;;;;;;7.18;70.69;102988.91;5094761;28;20498;-67
2022/03/22 06:12:01;;;;;;;37.78;26.63;;;;;;;7.18;70.33;102987.13;5092463;28;20146;-67
2022/03/22 06:14:27;;;;;;;40.20;26.65;;;;;;;7.22;70.44;102999.41;5092238;28;20024;-67
2022/03/22 06:16:52;;;;;;;37.55;25.63;;;;;;;7.21;70.22;102988.88;5092617;28;20024;-67
2022/03/22 06:19:18;;;;;;;36.13;26.98;;;;;;;7.30;69.91;102995.78;5075233;28;20043;-67
2022/03/22 06:21:44;;;;;;;40.03;25.63;;;;;;;7.32;70.27;103001.91;5076546;28;20048;-67
2022/03/22 06:24:10;;;;;;;51.67;28.35;;;;;;;7.48;70.23;103004.31;5104752;28;20024;-67
2022/03/22 06:26:37;;;;;;;40.17;26.25;;;;;;;7.42;70.47;102993.81;5093178;28;20038;-67
2022/03/22 06:29:03;;;;;;;42.42;26.83;;;;;;;7.54;70.19;102998.06;5087168;28;20471;-67
2022/03/22 06:31:33;;;;;;;35.35;25.55;;;;;;;7.40;70.69;102992.97;5096874;28;20027;-67
2022/03/22 06:34:00;;;;;;;44.03;28.15;;;;;;;7.63;70.41;103000.56;5094870;28;20111;-67
2022/03/22 06:36:27;;;;;;;44.53;26.83;;;;;;;7.69;70.05;103003.09;5090167;28;20035;-67
2022/03/22 06:38:53;;;;;;;40.33;28.38;;;;;;;7.79;69.64;103001.16;5060429;28;20032;-67
2022/03/22 06:41:18;;;;;;;41.30;27.75;;;;;;;7.84;70.14;103004.63;5108511;28;20038;-67
2022/03/22 06:43:46;;;;;;;45.78;29.10;;;;;;;8.00;69.41;103009.66;5093583;28;20046;-67
2022/03/22 06:46:12;;;;;;;38.95;27.52;;;;;;;8.04;69.30;103003.41;5090887;28;20039;-67
2022/03/22 06:48:38;;;;;;;38.85;28.55;;;;;;;8.18;68.09;103006.69;5088828;28;20024;-67
2022/03/22 06:51:07;;;;;;;40.08;27.42;;;;;;;8.28;67.49;103012.69;5083732;28;20028;-67
2022/03/22 06:53:33;;;;;;;38.17;27.40;;;;;;;8.36;66.90;103003.69;5057073;28;20035;-67
2022/03/22 06:55:59;;;;;;;40.30;28.05;;;;;;;8.45;66.99;103013.28;5096206;28;20028;-67
2022/03/22 06:58:27;;;;;;;39.13;27.65;;;;;;;8.58;65.93;103017.44;5101158;28;20092;-67
2022/03/22 07:00:55;;;;;;;39.38;27.50;;;;;;;8.68;65.71;103015.50;5094639;28;20023;-67
2022/03/22 07:03:20;;;;;;;37.70;27.65;;;;;;;8.80;65.68;103019.66;5091959;28;20024;-67
2022/03/22 07:05:48;;;;;;;40.65;28.45;;;;;;;8.87;65.61;103024.81;5100427;28;20084;-68
2022/03/22 07:08:15;;;;;;;46.15;28.40;;;;;;;8.92;65.05;103008.78;5105066;28;20485;-67
2022/03/22 07:11:47;;;;;;;39.05;27.83;;;;;;;9.09;64.78;103022.56;5091512;28;20023;-67
2022/03/22 07:13:26;;;;;;;37.03;27.02;;;;;;;9.17;64.22;103013.56;5079488;28;20040;-67
2022/03/22 07:15:51;;;;;;;40.75;28.88;;;;;;;9.32;63.87;103027.38;5097256;28;20512;-67
2022/03/22 07:18:20;;;;;;;37.70;27.83;;;;;;;9.42;63.46;103016.53;5069566;28;20076;-67
2022/03/22 07:20:45;;;;;;;38.80;27.77;;;;;;;9.57;63.24;103023.28;5097555;28;20048;-67
2022/03/22 07:23:11;;;;;;;44.20;28.75;;;;;;;9.67;62.93;103023.00;5091388;28;20110;-67
2022/03/22 07:25:37;;;;;;;43.33;27.95;;;;;;;9.76;61.91;103020.16;5064476;28;20394;-67
2022/03/22 07:28:02;;;;;;;36.17;27.17;;;;;;;9.84;63.40;103029.69;5110998;28;20023;-67
2022/03/22 07:30:29;;;;;;;38.58;28.80;;;;;;;9.97;63.13;103032.03;5110788;28;20102;-67
2022/03/22 07:32:55;;;;;;;43.20;28.60;;;;;;;10.08;61.50;103028.19;5092765;28;20024;-67
2022/03/22 07:35:22;;;;;;;40.70;28.58;;;;;;;10.23;61.11;103033.09;5072983;28;20398;-67
2022/03/22 07:37:49;;;;;;;38.22;27.70;;;;;;;10.32;60.16;103037.34;5099210;28;20035;-67
2022/03/22 07:40:15;;;;;;;37.45;28.00;;;;;;;10.39;60.26;103039.81;5081904;28;20028;-67
2022/03/22 07:42:43;;;;;;;39.65;26.75;;;;;;;10.56;59.91;103028.72;5093158;28;20027;-67
2022/03/22 07:45:10;;;;;;;39.22;29.13;;;;;;;10.69;59.86;103037.22;5108939;28;20028;-67
2022/03/22 07:47:36;;;;;;;41.42;27.88;;;;;;;10.73;58.59;103017.56;5110711;28;20027;-67
2022/03/22 07:53:01;;;;;;;37.38;27.35;;;;;;;11.02;57.90;103034.50;5091541;28;20502;-67
2022/03/22 07:55:29;;;;;;;43.13;28.10;;;;;;;11.17;57.42;103033.16;5100134;28;20063;-67
2022/03/22 07:57:58;;;;;;;40.40;27.63;;;;;;;11.28;56.85;103031.03;5106105;28;20501;-67
2022/03/22 08:00:29;;;;;;;44.72;28.95;;;;;;;11.41;56.43;103032.38;5097288;28;20124;-67
2022/03/22 08:02:57;;;;;;;39.50;27.40;;;;;;;11.56;55.83;103033.72;5096500;28;20391;-67
2022/03/22 08:05:24;;;;;;;39.95;27.27;;;;;;;11.68;54.89;103041.31;5093034;28;20436;-67
2022/03/22 08:07:50;;;;;;;42.30;27.95;;;;;;;11.85;54.89;103031.88;5093227;28;20024;-67
2022/03/22 08:10:16;;;;;;;37.13;26.08;;;;;;;12.00;54.37;103034.94;5104720;28;20036;-67
2022/03/22 08:12:42;;;;;;;37.90;26.33;;;;;;;12.20;53.60;103041.38;5072055;28;20032;-67
2022/03/22 08:15:09;;;;;;;34.75;27.52;;;;;;;12.30;53.47;103045.50;5073372;28;20620;-67
2022/03/22 08:17:37;;;;;;;37.97;26.08;;;;;;;12.47;52.65;103044.88;5101324;28;20031;-67
2022/03/22 08:20:03;;;;;;;40.90;27.88;;;;;;;12.53;52.05;103038.44;5111357;28;20039;-67
2022/03/22 08:22:32;;;;;;;35.00;26.27;;;;;;;12.70;51.40;103044.91;5111366;28;20070;-67
2022/03/22 08:24:57;;;;;;;38.78;26.95;;;;;;;12.74;50.93;103043.03;5093453;28;20131;-67
2022/03/22 08:27:23;;;;;;;35.75;26.80;;;;;;;12.86;50.62;103045.22;5110627;28;20062;-68
2022/03/22 08:29:51;;;;;;;36.95;26.60;;;;;;;13.00;49.96;103044.72;5093008;28;20031;-67
2022/03/22 08:32:16;;;;;;;38.42;26.17;;;;;;;13.21;50.18;103050.13;5092711;28;20032;-67
2022/03/22 08:34:44;;;;;;;37.97;26.80;;;;;;;13.29;49.57;103032.91;5111041;28;20399;-67
2022/03/22 08:37:12;;;;;;;34.83;25.23;;;;;;;13.50;48.23;103041.00;5107576;28;20108;-67
2022/03/22 08:39:38;;;;;;;36.53;26.17;;;;;;;13.73;49.38;103048.09;5066389;28;20047;-67
2022/03/22 08:42:03;;;;;;;42.10;26.30;;;;;;;13.80;47.71;103042.44;5090227;28;20384;-67
2022/03/22 08:44:29;;;;;;;32.22;24.63;;;;;;;13.98;47.66;103043.47;5090024;28;20116;-67
2022/03/22 08:46:56;;;;;;;36.42;26.40;;;;;;;14.29;46.83;103043.06;5055210;28;20371;-67
2022/03/22 08:49:24;;;;;;;36.80;25.10;;;;;;;14.29;45.84;103048.41;5093794;28;20020;-67
2022/03/22 08:51:50;;;;;;;35.67;25.95;;;;;;;14.30;45.43;103049.28;5092484;28;20491;-67
2022/03/22 08:54:17;;;;;;;39.47;25.15;;;;;;;14.41;45.23;103048.78;5110884;28;20026;-67
2022/03/22 08:56:43;;;;;;;48.78;25.67;;;;;;;14.42;44.67;103047.88;5092697;28;20043;-67
2022/03/22 08:59:09;;;;;;;41.28;25.33;;;;;;;14.53;44.64;103038.44;5092572;28;20076;-67
2022/03/22 09:01:34;;;;;;;37.38;25.15;;;;;;;14.58;44.22;103043.59;5095719;28;20035;-67
2022/03/22 09:06:44;;;;;;;40.35;25.75;;;;;;;15.01;44.24;103044.31;5106545;28;20030;-68
2022/03/22 09:09:10;;;;;;;33.72;24.90;;;;;;;15.15;42.32;103046.34;5063854;28;20020;-67
2022/03/22 09:11:38;;;;;;;40.45;25.98;;;;;;;15.32;41.97;103042.84;5059639;28;20064;-67
2022/03/22 09:14:04;;;;;;;34.80;25.85;;;;;;;15.41;41.96;103047.78;5094639;28;20039;-67
2022/03/22 09:16:31;;;;;;;34.25;25.40;;;;;;;15.50;41.96;103042.00;5113861;28;20081;-67
2022/03/22 09:18:57;;;;;;;36.50;26.10;;;;;;;15.79;41.90;103043.25;5071882;28;20047;-67
2022/03/22 09:21:23;;;;;;;39.78;28.15;;;;;;;16.05;40.79;103033.00;5111870;28;20403;-67
2022/03/22 09:23:49;;;;;;;38.38;26.15;;;;;;;16.03;40.76;103030.41;5095880;28;20110;-67
2022/03/22 09:26:15;;;;;;;34.53;26.52;;;;;;;16.12;40.01;103038.00;5095942;28;20490;-67
2022/03/22 09:28:41;;;;;;;40.03;26.45;;;;;;;16.26;39.56;103039.09;5096203;28;20428;-66
2022/03/22 09:31:07;;;;;;;40.72;26.40;;;;;;;16.24;39.34;103032.94;5089048;28;20032;-67
2022/03/22 09:33:33;;;;;;;39.20;26.42;;;;;;;16.22;39.25;103035.69;5113381;28;20027;-67
2022/03/22 09:35:59;;;;;;;41.35;26.77;;;;;;;16.26;39.79;103039.09;5113469;28;20398;-67
2022/03/22 09:38:25;;;;;;;39.25;26.73;;;;;;;16.49;39.30;103027.13;5095530;28;20050;-67
2022/03/22 09:40:53;;;;;;;35.20;26.15;;;;;;;16.71;39.17;103033.09;5095605;28;20474;-67
2022/03/22 09:43:22;;;;;;;37.53;25.80;;;;;;;16.71;38.49;103038.47;5114585;28;20106;-67
2022/03/22 09:45:51;;;;;;;35.38;25.83;;;;;;;17.13;37.94;103033.56;5113512;28;20027;-67
2022/03/22 09:48:17;;;;;;;35.38;26.08;;;;;;;17.32;37.49;103028.84;5114106;28;20080;-67
2022/03/22 09:53:32;;;;;;;39.80;25.85;;;;;;;17.69;36.92;103015.97;5101891;28;20085;-67
2022/03/22 09:55:58;;;;;;;37.03;26.95;;;;;;;17.70;35.96;103023.94;5095615;28;20046;-67
2022/03/22 09:58:23;;;;;;;38.38;26.60;;;;;;;17.81;36.01;103033.28;5093029;28;20395;-67
2022/03/22 10:00:51;;;;;;;36.30;26.70;;;;;;;18.15;37.00;103029.44;5101302;28;20036;-67
2022/03/22 10:03:21;;;;;;;41.97;27.80;;;;;;;18.07;36.69;103032.59;5095620;28;20047;-67
2022/03/22 10:06:05;;;;;;;40.85;27.08;;;;;;;18.33;37.47;103038.25;5095425;28;20059;-67
2022/03/22 10:08:31;;;;;;;38.78;26.02;;;;;;;18.26;35.55;103020.69;5095416;28;20028;-67
2022/03/22 10:11:03;;;;;;;40.58;27.15;;;;;;;18.31;34.84;103032.94;5094337;28;20067;-67
2022/03/22 10:13:29;;;;;;;36.15;25.33;;;;;;;18.55;34.48;103019.78;5113426;28;20016;-67
2022/03/22 10:16:05;;;;;;;41.95;27.15;;;;;;;18.46;35.27;103031.13;5058056;28;20036;-67
2022/03/22 10:18:34;;;;;;;41.13;25.27;;;;;;;18.68;35.10;103024.38;5074868;28;20077;-67
2022/03/22 10:21:04;;;;;;;35.15;25.63;;;;;;;18.95;33.17;103022.69;5094801;28;20035;-67
2022/03/22 10:23:31;;;;;;;37.38;24.50;;;;;;;19.11;32.68;103011.78;5093110;28;20465;-67
2022/03/22 10:26:05;;;;;;;39.38;26.45;;;;;;;19.17;32.78;103011.38;5092502;28;20058;-67
2022/03/22 10:28:32;;;;;;;35.30;26.10;;;;;;;19.56;32.53;103011.53;5084726;28;20467;-67
2022/03/22 10:30:58;;;;;;;43.38;27.05;;;;;;;19.45;33.39;103012.28;5093221;28;20024;-66
2022/03/22 10:33:23;;;;;;;39.83;28.80;;;;;;;19.64;32.74;103009.19;5113212;28;20027;-67
2022/03/22 10:35:49;;;;;;;39.88;27.95;;;;;;;19.76;32.14;103011.09;5094242;28;20467;-67
2022/03/22 10:38:18;;;;;;;36.95;26.10;;;;;;;20.16;31.46;103011.94;5094705;28;20032;-67
2022/03/22 10:40:45;;;;;;;35.15;25.23;;;;;;;20.18;30.37;103004.63;5112646;28;20387;-67
2022/03/22 10:43:14;;;;;;;32.83;23.73;;;;;;;20.62;29.92;103007.91;5094511;28;20485;-67
2022/03/22 10:45:44;;;;;;;34.33;24.83;;;;;;;20.98;29.84;103000.81;5075654;28;20035;-67
2022/03/22 10:48:14;;;;;;;34.58;25.35;;;;;;;21.11;29.14;103001.63;5092464;28;20020;-67
2022/03/22 10:50:39;;;;;;;35.55;24.45;;;;;;;20.95;29.50;102995.63;5110242;28;20478;-67
2022/03/22 10:53:05;;;;;;;35.55;25.58;;;;;;;20.98;29.69;102996.25;5106814;28;20027;-67
2022/03/22 10:55:31;;;;;;;35.78;24.98;;;;;;;21.25;28.84;102996.06;5092442;28;20028;-67
2022/03/22 10:57:58;;;;;;;37.58;23.85;;;;;;;21.42;28.01;102999.38;5075144;28;20032;-67
2022/03/22 11:00:25;;;;;;;31.15;23.83;;;;;;;21.36;28.32;102981.75;5091953;28;20486;-67
2022/03/22 11:02:54;;;;;;;37.58;25.38;;;;;;;21.18;28.64;102996.59;5092360;28;20051;-67
2022/03/22 11:05:22;;;;;;;38.92;25.63;;;;;;;21.40;28.76;102991.38;5092148;28;20027;-67
2022/03/22 11:07:49;;;;;;;34.00;25.95;;;;;;;21.32;28.96;103001.88;5075432;28;20059;-67
2022/03/22 11:10:29;;;;;;;35.65;24.00;;;;;;;22.00;29.05;103001.22;5075340;28;20519;-67
2022/03/22 11:12:57;;;;;;;38.53;25.60;;;;;;;22.21;27.41;102993.31;5092936;28;20119;-67
2022/03/22 11:15:25;;;;;;;33.83;25.13;;;;;;;22.37;27.63;102994.78;5095061;28;20453;-67
2022/03/22 11:17:54;;;;;;;37.22;23.95;;;;;;;22.33;27.99;102996.88;5112154;28;20733;-67
2022/03/22 11:20:23;;;;;;;31.98;22.33;;;;;;;23.01;26.68;102988.78;5081013;28;20354;-67
2022/03/22 11:22:54;;;;;;;;;;;;;;;23.56;28.73;102993.19;5071496;28;20025;-65
2022/03/22 11:25:25;;;;;;;26.17;19.60;;;;;;;23.34;26.53;102985.97;5079283;28;19924;-64
2022/03/22 11:27:59;;;;;;;32.75;20.70;;;;;;;23.65;25.68;102983.41;5071604;28;20495;-64
2022/03/22 11:30:27;;;;;;;28.38;21.80;;;;;;;23.75;25.18;102976.19;5083835;28;20068;-64
2022/03/22 11:35:57;;;;;;;31.45;22.00;;;;;;;25.19;24.51;102973.50;5071714;28;20039;-65
2022/03/22 11:38:44;;;;;;;30.13;21.42;;;;;;;25.87;25.92;102970.81;5076178;28;20115;-65
2022/03/22 11:44:36;;;;;;;33.97;22.95;;;;;;;26.85;23.09;102979.53;5067453;28;20064;-65
2022/03/22 11:47:18;;;;;;;27.60;20.73;;;;;;;27.40;22.67;102971.28;5088666;28;20027;-65
2022/03/22 11:49:49;;;;;;;30.60;20.88;;;;;;;27.70;20.94;102969.16;5091381;28;20081;-65
2022/03/22 11:52:15;;;;;;;27.48;20.98;;;;;;;27.79;20.26;102958.16;5079386;28;20030;-65
2022/03/22 11:54:52;;;;;;;29.05;20.67;;;;;;;28.82;20.02;102962.88;5070735;28;20115;-65
2022/03/22 11:57:17;;;;;;;26.15;20.80;;;;;;;29.17;19.65;102961.81;5071360;28;20499;-65